To NAV CANADA Home Page Login to a new session Search on AWWS site Feedback and Comments Disclaimer Vers la page française équivalente Tips FAQ What's new on the site To the Forecasts and Observations / NOTAM section To "File a Flight Plan" website Publications and other links Update of the User's profile FIC Telephone Numbers My Weather Data Folder Route Weather Data Regional Weather Data Local Weather Data To the Forecasts and Observations / NOTAM section
Request Generated 08/31/2016 at 06:00:48 UTC . Weather information available at that time is displayed.

METAR/TAF

SARNIA (CHRIS HADFIELD)/ON    (show WxCam)

METAR CYZR 310500Z AUTO 22003KT 9SM BKN031 BKN038 21/18 A3000 RMK
SLP158 DENSITY ALT 1300FT=
METAR CYZR 310400Z AUTO 19004KT 9SM SCT035 OVC200 21/18 A3001 RMK
SLP162 DENSITY ALT 1300FT=
METAR CYZR 310300Z AUTO 20003KT 9SM FEW160 BKN180 OVC210 22/18 A3003
RMK SLP167 DENSITY ALT 1300FT=

*** REMARK        : Forecast period has ended; this was the last TAF issued
*** REMARQUE : La période de prévision est échue; ceci était le dernier TAF qui a été émis
TAF CYZR 301938Z 3020/3102 21012KT P6SM SCT120 BKN200
BECMG 3022/3024 23005KT
RMK FCST BASED ON AUTO OBS. NXT FCST WILL BE ISSUED AT 311145Z=
Your time UTC time
Weather data provided by Environment Canada and NAV CANADA